createdAt,value
2022-07-27T00:02:24.314Z,76.03
2022-07-27T00:05:28.163Z,76.09
2022-07-27T00:08:33.231Z,76.16
2022-07-27T00:11:36.908Z,76.21
2022-07-27T00:14:40.636Z,76.57
2022-07-27T00:17:44.654Z,76.91
2022-07-27T00:20:48.987Z,76.74
2022-07-27T00:23:54.595Z,76.84
2022-07-27T00:26:58.268Z,76.83
2022-07-27T00:30:01.987Z,76.80
2022-07-27T00:33:06.610Z,76.71
2022-07-27T00:36:10.873Z,76.66
2022-07-27T00:39:15.878Z,76.49
2022-07-27T00:42:27.295Z,76.24
2022-07-27T00:45:31.059Z,76.04
2022-07-27T00:48:34.713Z,75.83
2022-07-27T00:51:38.364Z,75.94
2022-07-27T00:54:44.804Z,75.95
2022-07-27T00:57:58.998Z,75.65
2022-07-27T01:01:03.371Z,75.76
2022-07-27T01:04:07.601Z,75.90
2022-07-27T01:07:13.059Z,75.72
2022-07-27T01:10:18.995Z,75.79
2022-07-27T01:13:23.875Z,76.20
2022-07-27T01:16:27.600Z,76.31
2022-07-27T01:19:31.310Z,76.42
2022-07-27T01:22:36.437Z,76.93
2022-07-27T01:25:43.982Z,77.13
2022-07-27T01:28:48.996Z,77.29
2022-07-27T01:31:52.658Z,77.15
2022-07-27T01:34:56.339Z,77.26
2022-07-27T01:38:01.843Z,77.40
2022-07-27T01:41:05.519Z,77.41
2022-07-27T01:44:09.566Z,77.60
2022-07-27T01:47:14.217Z,77.61
2022-07-27T01:50:18.796Z,77.79
2022-07-27T01:53:27.024Z,77.93
2022-07-27T01:56:30.708Z,78.19
2022-07-27T01:59:34.409Z,78.27
2022-07-27T02:02:38.203Z,78.53
2022-07-27T02:05:42.808Z,78.37
2022-07-27T02:08:47.829Z,78.77
2022-07-27T02:12:08.655Z,78.72
2022-07-27T02:15:15.777Z,78.65
2022-07-27T02:18:33.772Z,78.67
2022-07-27T02:21:40.480Z,78.57
2022-07-27T02:24:45.449Z,78.38
2022-07-27T02:27:49.698Z,78.35
2022-07-27T02:30:53.350Z,78.23
2022-07-27T02:33:57.018Z,78.45
2022-07-27T02:37:00.696Z,78.47
2022-07-27T02:40:07.152Z,78.58
2022-07-27T02:43:10.834Z,78.73
2022-07-27T02:46:14.478Z,78.67
2022-07-27T02:49:18.259Z,78.80
2022-07-27T02:52:22.736Z,78.93
2022-07-27T02:55:27.914Z,79.13
2022-07-27T02:58:31.557Z,79.11
2022-07-27T03:01:35.277Z,79.47
2022-07-27T03:04:39.101Z,79.58
2022-07-27T03:07:42.919Z,79.53
2022-07-27T03:10:48.785Z,79.90
2022-07-27T03:13:52.634Z,80.16
2022-07-27T03:16:56.341Z,80.26
2022-07-27T03:20:00.033Z,80.27
2022-07-27T03:23:03.638Z,80.42
2022-07-27T03:26:08.686Z,80.35
2022-07-27T03:29:13.624Z,80.14
2022-07-27T03:32:17.705Z,80.26
2022-07-27T03:35:21.428Z,80.17
2022-07-27T03:38:25.095Z,80.20
2022-07-27T03:41:30.289Z,80.19
2022-07-27T03:44:34.137Z,80.24
2022-07-27T03:47:37.972Z,80.27
2022-07-27T03:50:41.933Z,80.30
2022-07-27T03:53:46.049Z,80.37
2022-07-27T03:56:51.007Z,80.13
2022-07-27T03:59:54.629Z,80.39
2022-07-27T04:02:58.272Z,80.42
2022-07-27T04:06:02.072Z,80.35
2022-07-27T04:09:08.486Z,80.41
2022-07-27T04:12:14.078Z,80.32
2022-07-27T04:15:22.352Z,80.25
2022-07-27T04:18:26.049Z,80.27
2022-07-27T04:21:33.632Z,80.18
2022-07-27T04:24:37.580Z,80.02
2022-07-27T04:27:42.611Z,79.98
2022-07-27T04:30:46.314Z,79.84
2022-07-27T04:33:50.233Z,79.82
2022-07-27T04:36:53.837Z,79.80
2022-07-27T04:39:58.895Z,79.94
2022-07-27T04:43:06.583Z,79.61
2022-07-27T04:46:15.318Z,79.73
2022-07-27T04:49:22.460Z,79.62
2022-07-27T04:52:26.855Z,79.54
2022-07-27T04:55:32.618Z,79.70
2022-07-27T04:58:38.040Z,79.69
2022-07-27T05:01:41.784Z,79.89
2022-07-27T05:04:45.543Z,79.50
2022-07-27T05:07:49.276Z,79.26
2022-07-27T05:10:52.909Z,78.86
2022-07-27T05:13:57.905Z,78.87
2022-07-27T05:17:01.714Z,78.73
2022-07-27T05:20:10.813Z,78.60
2022-07-27T05:23:14.504Z,78.10
2022-07-27T05:26:18.228Z,78.02
2022-07-27T05:29:23.966Z,78.16
2022-07-27T05:32:28.138Z,77.88
2022-07-27T05:35:32.261Z,77.93
2022-07-27T05:38:39.636Z,78.17
2022-07-27T05:41:44.703Z,77.22
2022-07-27T05:44:55.405Z,77.18
2022-07-27T05:48:00.675Z,76.80
2022-07-27T05:51:05.077Z,77.48
2022-07-27T05:54:09.752Z,76.38
2022-07-27T05:57:15.787Z,75.82
2022-07-27T06:00:21.615Z,73.83
2022-07-27T06:03:26.456Z,72.30
2022-07-27T06:06:48.250Z,70.62
2022-07-27T06:09:53.468Z,68.53
2022-07-27T06:12:58.053Z,68.17
2022-07-27T06:16:05.526Z,67.36
2022-07-27T06:19:10.764Z,66.48
2022-07-27T06:22:15.757Z,66.07
2022-07-27T06:25:21.303Z,65.17
2022-07-27T06:28:26.786Z,63.86
2022-07-27T06:31:35.593Z,63.81
2022-07-27T06:34:46.487Z,63.29
2022-07-27T06:37:55.317Z,61.46
2022-07-27T06:41:00.133Z,61.17
2022-07-27T06:44:05.426Z,61.17
2022-07-27T06:47:11.362Z,61.13
2022-07-27T06:50:16.188Z,61.15
2022-07-27T06:53:21.700Z,61.29
2022-07-27T06:56:26.334Z,61.55
2022-07-27T06:59:42.684Z,61.76
2022-07-27T07:02:59.216Z,61.18
2022-07-27T07:06:03.668Z,60.91
2022-07-27T07:09:09.069Z,60.56
2022-07-27T07:12:14.598Z,61.59
2022-07-27T07:15:26.704Z,60.65
2022-07-27T07:18:32.489Z,60.91
2022-07-27T07:21:38.314Z,61.39
2022-07-27T07:24:42.555Z,61.43
2022-07-27T07:27:47.145Z,60.75
2022-07-27T07:30:52.119Z,61.32
2022-07-27T07:33:57.683Z,61.59
2022-07-27T07:37:02.082Z,61.82
2022-07-27T07:40:42.524Z,62.05
2022-07-27T07:43:37.073Z,61.93
2022-07-27T07:46:47.069Z,60.93
2022-07-27T07:49:53.681Z,61.20
2022-07-27T07:52:58.276Z,61.34
2022-07-27T07:56:03.088Z,61.44
2022-07-27T07:59:07.525Z,59.05
2022-07-27T08:02:11.721Z,56.71
2022-07-27T08:05:19.809Z,55.44
2022-07-27T08:08:25.094Z,55.96
2022-07-27T08:11:29.564Z,53.13
2022-07-27T08:14:34.379Z,53.17
2022-07-27T08:17:38.744Z,54.11
2022-07-27T08:20:46.286Z,53.93
2022-07-27T08:23:50.609Z,53.47
2022-07-27T08:26:54.866Z,54.92
2022-07-27T08:29:59.269Z,54.60
2022-07-27T08:33:07.396Z,52.51
2022-07-27T08:36:13.093Z,51.39
2022-07-27T08:39:52.669Z,50.72
2022-07-27T08:42:44.592Z,52.38
2022-07-27T08:45:59.054Z,49.27
2022-07-27T08:49:04.292Z,51.79
2022-07-27T08:52:12.111Z,54.21
2022-07-27T08:55:16.613Z,57.21
2022-07-27T08:58:20.993Z,57.15
2022-07-27T09:01:27.058Z,56.63
2022-07-27T09:04:31.420Z,57.46
2022-07-27T09:07:37.554Z,58.11
2022-07-27T09:10:42.452Z,57.57
2022-07-27T09:13:46.972Z,58.34
2022-07-27T09:17:45.964Z,58.10
2022-07-27T09:20:18.991Z,57.97
2022-07-27T09:23:29.719Z,57.79
2022-07-27T09:26:34.893Z,57.71
2022-07-27T09:29:39.507Z,57.47
2022-07-27T09:32:59.300Z,57.14
2022-07-27T09:36:03.794Z,54.71
2022-07-27T09:39:09.450Z,52.82
2022-07-27T09:43:05.518Z,51.79
2022-07-27T09:45:51.262Z,51.03
2022-07-27T09:48:56.277Z,50.70
2022-07-27T09:52:11.324Z,51.74
2022-07-27T09:55:21.801Z,53.89
2022-07-27T09:58:42.492Z,55.04
2022-07-27T10:01:54.547Z,54.01
2022-07-27T10:04:59.337Z,53.67
2022-07-27T10:08:04.322Z,52.55
2022-07-27T10:11:10.545Z,52.81
2022-07-27T10:14:15.363Z,49.34
2022-07-27T10:17:19.553Z,48.22
2022-07-27T10:20:23.259Z,46.55
2022-07-27T10:23:30.131Z,47.24
2022-07-27T10:26:39.115Z,47.14
2022-07-27T10:29:44.445Z,48.13
2022-07-27T10:32:48.081Z,47.68
2022-07-27T10:35:51.804Z,47.67
2022-07-27T10:38:58.432Z,48.14
2022-07-27T10:42:28.911Z,47.45
2022-07-27T10:45:52.624Z,46.64
2022-07-27T10:49:20.234Z,43.82
2022-07-27T10:52:43.255Z,43.22
2022-07-27T10:55:52.072Z,43.87
2022-07-27T10:58:57.104Z,45.21
2022-07-27T11:02:00.900Z,45.26
2022-07-27T11:05:07.084Z,45.65
2022-07-27T11:11:39.904Z,47.23
2022-07-27T11:14:52.586Z,49.00
2022-07-27T11:18:02.683Z,49.93
2022-07-27T11:21:21.879Z,49.49
2022-07-27T11:24:29.244Z,48.70
2022-07-27T11:27:33.828Z,49.21
2022-07-27T11:30:40.006Z,48.39
2022-07-27T11:33:57.973Z,49.66
2022-07-27T11:37:03.314Z,49.05
2022-07-27T11:40:37.447Z,48.43
2022-07-27T11:43:41.585Z,47.92
2022-07-27T11:46:56.340Z,48.43
2022-07-27T11:50:08.411Z,48.36
2022-07-27T11:53:12.212Z,48.86
2022-07-27T11:56:24.292Z,50.28
2022-07-27T11:59:33.642Z,50.08
2022-07-27T12:02:39.079Z,50.15
2022-07-27T12:05:43.310Z,50.12
2022-07-27T12:08:47.140Z,50.23
2022-07-27T12:11:56.379Z,50.31
2022-07-27T12:15:22.035Z,50.51
2022-07-27T12:18:41.638Z,48.84
2022-07-27T12:21:53.499Z,47.61
2022-07-27T12:24:58.876Z,46.71
2022-07-27T12:28:06.561Z,46.32
2022-07-27T12:31:19.142Z,47.17
2022-07-27T12:34:24.298Z,46.99
2022-07-27T12:37:33.339Z,45.85
2022-07-27T12:40:46.332Z,45.85
2022-07-27T12:44:06.834Z,46.05
2022-07-27T12:47:28.785Z,46.29
2022-07-27T12:50:34.366Z,46.30
2022-07-27T12:53:39.886Z,46.25
2022-07-27T12:56:43.637Z,44.79
2022-07-27T12:59:47.560Z,44.45
2022-07-27T13:02:51.771Z,44.69
2022-07-27T13:05:57.012Z,44.93
2022-07-27T13:09:00.617Z,44.68
2022-07-27T13:12:04.804Z,44.27
2022-07-27T13:15:10.805Z,44.08
2022-07-27T13:18:14.385Z,43.11
2022-07-27T13:21:20.232Z,43.96
2022-07-27T13:24:23.964Z,42.92
2022-07-27T13:27:28.656Z,44.07
2022-07-27T13:30:32.897Z,44.16
2022-07-27T13:33:37.403Z,44.00
2022-07-27T13:36:43.073Z,45.09
2022-07-27T13:39:47.719Z,44.47
2022-07-27T13:42:51.964Z,44.15
2022-07-27T13:45:56.433Z,44.19
2022-07-27T13:49:01.054Z,44.09
2022-07-27T13:52:09.160Z,44.14
2022-07-27T13:55:13.861Z,44.10
2022-07-27T13:58:18.013Z,44.36
2022-07-27T14:01:22.882Z,44.66
2022-07-27T14:04:27.665Z,44.77
2022-07-27T14:07:35.130Z,45.87
2022-07-27T14:10:42.890Z,48.82
2022-07-27T14:13:47.513Z,52.51
2022-07-27T14:16:52.098Z,53.87
2022-07-27T14:19:56.445Z,54.04
2022-07-27T14:23:02.067Z,53.64
2022-07-27T14:26:08.928Z,52.48
2022-07-27T14:29:12.769Z,52.79
2022-07-27T14:32:17.558Z,52.87
2022-07-27T14:35:23.123Z,53.25
2022-07-27T14:38:30.956Z,51.87
2022-07-27T14:41:35.441Z,51.75
2022-07-27T14:44:39.070Z,51.67
2022-07-27T14:47:43.260Z,50.89
2022-07-27T14:50:47.664Z,51.15
2022-07-27T14:53:52.678Z,51.19
2022-07-27T14:56:58.231Z,51.12
2022-07-27T15:00:02.130Z,51.32
2022-07-27T15:03:07.271Z,49.99
2022-07-27T15:06:11.179Z,51.06
2022-07-27T15:09:16.913Z,50.06
2022-07-27T15:12:23.152Z,50.62
2022-07-27T15:15:35.581Z,51.39
2022-07-27T15:18:40.311Z,52.17
2022-07-27T15:21:44.011Z,53.26
2022-07-27T15:24:49.108Z,53.08
2022-07-27T15:27:52.674Z,53.70
2022-07-27T15:30:56.586Z,54.23
2022-07-27T15:34:00.229Z,53.62
2022-07-27T15:37:07.431Z,54.32
2022-07-27T15:40:31.018Z,53.33
2022-07-27T15:43:35.346Z,52.90
2022-07-27T15:46:39.027Z,51.83
2022-07-27T15:49:42.821Z,50.52
2022-07-27T15:52:46.512Z,50.39
2022-07-27T15:55:52.984Z,50.54
2022-07-27T15:58:56.836Z,50.95
2022-07-27T16:02:00.551Z,49.44
2022-07-27T16:05:04.383Z,48.78
2022-07-27T16:08:11.513Z,48.96
2022-07-27T16:11:16.847Z,48.73
2022-07-27T16:14:20.495Z,49.16
2022-07-27T16:17:24.412Z,50.07
2022-07-27T16:20:28.034Z,50.38
2022-07-27T16:23:31.766Z,49.78
2022-07-27T16:26:36.856Z,49.32
2022-07-27T16:29:40.576Z,49.11
2022-07-27T16:32:44.191Z,48.38
2022-07-27T16:35:48.144Z,48.15
2022-07-27T16:38:52.516Z,47.71
2022-07-27T16:41:58.465Z,48.44
2022-07-27T16:45:02.382Z,50.07
2022-07-27T16:48:06.422Z,50.72
2022-07-27T16:51:11.187Z,50.64
2022-07-27T16:54:14.998Z,51.34
2022-07-27T16:57:20.456Z,51.78
2022-07-27T17:00:24.290Z,51.65
2022-07-27T17:03:28.183Z,51.77
2022-07-27T17:06:32.035Z,51.86
2022-07-27T17:09:35.696Z,52.54
2022-07-27T17:12:41.352Z,52.99
2022-07-27T17:15:46.387Z,52.90
2022-07-27T17:18:50.036Z,52.47
2022-07-27T17:21:53.651Z,51.76
2022-07-27T17:24:57.421Z,51.14
2022-07-27T17:28:02.507Z,50.91
2022-07-27T17:31:07.195Z,50.91
2022-07-27T17:34:10.959Z,50.82
2022-07-27T17:37:15.277Z,50.78
2022-07-27T17:40:19.125Z,50.60
2022-07-27T17:43:26.709Z,50.02
2022-07-27T17:46:33.114Z,50.28
2022-07-27T17:49:39.191Z,50.35
2022-07-27T17:52:42.930Z,50.29
2022-07-27T17:55:46.532Z,50.29
2022-07-27T17:58:51.988Z,50.32
2022-07-27T18:01:56.595Z,50.82
2022-07-27T18:05:00.430Z,50.74
2022-07-27T18:08:04.120Z,50.94
2022-07-27T18:11:09.915Z,51.23
2022-07-27T18:14:15.026Z,51.55
2022-07-27T18:17:18.672Z,52.08
2022-07-27T18:20:22.395Z,52.60
2022-07-27T18:23:27.067Z,53.04
2022-07-27T18:26:31.111Z,53.42
2022-07-27T18:29:36.244Z,54.01
2022-07-27T18:32:39.948Z,55.28
2022-07-27T18:35:44.239Z,56.07
2022-07-27T18:38:49.741Z,56.87
2022-07-27T18:41:53.503Z,57.52
2022-07-27T18:44:58.452Z,58.11
2022-07-27T18:48:02.284Z,57.98
2022-07-27T18:51:06.052Z,58.43
2022-07-27T18:54:09.759Z,58.72
2022-07-27T18:57:13.528Z,58.94
2022-07-27T19:00:19.779Z,59.61
2022-07-27T19:03:27.782Z,59.82
2022-07-27T19:06:31.849Z,60.30
2022-07-27T19:09:35.844Z,60.81
2022-07-27T19:12:39.981Z,61.38
2022-07-27T19:15:45.488Z,61.26
2022-07-27T19:18:49.152Z,61.44
2022-07-27T19:21:52.766Z,61.48
2022-07-27T19:24:56.779Z,61.76
2022-07-27T19:28:00.951Z,61.58
2022-07-27T19:31:06.609Z,61.70
2022-07-27T19:34:27.676Z,62.22
2022-07-27T19:37:31.469Z,62.11
2022-07-27T19:40:45.323Z,62.17
2022-07-27T19:43:51.777Z,62.40
2022-07-27T19:46:57.966Z,62.52
2022-07-27T19:50:01.840Z,62.87
2022-07-27T19:53:06.635Z,62.97
2022-07-27T19:56:11.234Z,63.08
2022-07-27T19:59:16.072Z,63.58
2022-07-27T20:02:21.747Z,63.47
2022-07-27T20:05:26.754Z,63.58
2022-07-27T20:08:32.225Z,64.18
2022-07-27T20:11:36.735Z,64.30
2022-07-27T20:14:40.412Z,64.38
2022-07-27T20:17:45.536Z,64.64
2022-07-27T20:20:49.241Z,64.83
2022-07-27T20:23:54.519Z,65.20
2022-07-27T20:26:59.052Z,65.16
2022-07-27T20:30:02.755Z,65.71
2022-07-27T20:33:08.472Z,65.87
2022-07-27T20:36:12.182Z,65.88
2022-07-27T20:39:17.688Z,66.18
2022-07-27T20:42:22.819Z,66.17
2022-07-27T20:45:26.792Z,66.36
2022-07-27T20:48:33.803Z,66.75
2022-07-27T20:51:37.361Z,67.33
2022-07-27T20:54:41.215Z,67.71
2022-07-27T20:57:44.812Z,67.98
2022-07-27T21:00:48.594Z,68.14
2022-07-27T21:03:53.859Z,68.79
2022-07-27T21:06:57.634Z,68.80
2022-07-27T21:10:01.388Z,69.16
2022-07-27T21:13:05.039Z,69.61
2022-07-27T21:16:09.023Z,69.62
2022-07-27T21:19:14.447Z,70.11
2022-07-27T21:22:18.830Z,70.29
2022-07-27T21:25:22.918Z,70.56
2022-07-27T21:28:27.646Z,70.85
2022-07-27T21:31:31.452Z,71.76
2022-07-27T21:34:36.485Z,71.87
2022-07-27T21:37:40.302Z,72.06
2022-07-27T21:40:43.951Z,72.39
2022-07-27T21:43:47.618Z,72.57
2022-07-27T21:46:52.878Z,72.62
2022-07-27T21:49:57.870Z,72.69
2022-07-27T21:53:01.528Z,72.60
2022-07-27T21:56:06.123Z,72.86
2022-07-27T21:59:09.807Z,72.85
2022-07-27T22:02:13.993Z,72.83
2022-07-27T22:05:19.220Z,72.86
2022-07-27T22:08:22.900Z,72.97
2022-07-27T22:11:26.508Z,73.06
2022-07-27T22:14:30.190Z,73.34
2022-07-27T22:17:33.878Z,73.69
2022-07-27T22:20:38.977Z,73.91
2022-07-27T22:23:42.647Z,73.89
2022-07-27T22:26:46.321Z,74.08
2022-07-27T22:29:49.940Z,74.60
2022-07-27T22:32:53.676Z,74.79
2022-07-27T22:35:58.644Z,74.79
2022-07-27T22:39:02.274Z,74.90
2022-07-27T22:42:06.959Z,75.40
2022-07-27T22:45:11.703Z,75.39
2022-07-27T22:48:15.360Z,75.48
2022-07-27T22:51:20.305Z,75.56
2022-07-27T22:54:24.607Z,75.66
2022-07-27T22:57:28.408Z,75.93
2022-07-27T23:00:32.057Z,75.82
2022-07-27T23:03:35.751Z,76.01
2022-07-27T23:06:40.778Z,75.87
2022-07-27T23:09:44.445Z,75.93
2022-07-27T23:12:48.036Z,75.84
2022-07-27T23:15:51.836Z,75.83
2022-07-27T23:18:55.908Z,75.80
2022-07-27T23:22:01.666Z,76.04
2022-07-27T23:25:07.197Z,76.08
2022-07-27T23:28:11.198Z,75.88
2022-07-27T23:31:15.928Z,76.06
2022-07-27T23:34:19.752Z,76.25
2022-07-27T23:37:24.817Z,76.65
2022-07-27T23:40:28.650Z,76.76
2022-07-27T23:43:32.291Z,76.62
2022-07-27T23:46:36.000Z,76.78
2022-07-27T23:49:39.691Z,76.71
2022-07-27T23:52:44.984Z,77.48
2022-07-27T23:55:48.724Z,77.32
2022-07-27T23:58:52.427Z,77.16
